Thunder radar more information blitzortung!


Radar de pluja more information rain snow radar


Visita la nostra xarxa de llocs de meteo:

Template documentation
and downloads

And another site



No particular awareness of the weather is required.    There are no Weather-warnings

Pagina Historial Weather Underground text

Diari Resum Novembre 5, 2017 Unitats:  Tant    Imperial   Mètric
« Previous Dia
SegĂźent Dia »
Diari Setmana Mensual Anual Personalitzada
  Maxima: Minima: Media:
Temperatura: 66.4 °F /  19.1 °C 45.1 °F /  7.3 °C 56.7 °F /  13.7 °C
Punt de rosada: 53.6 °F /  12.0 °C 32.9 °F /  0.5 °C 45.3 °F /  7.4 °C
Humitat: 92 % 48 % 68 %
Wind Speed: 13 mph /  20.9 km/h - 4.2 mph /  6.7 km/h
RĂ fegues de vent: 13 mph /  20.9 km/h - -
Vent:- - WSW
Pression baro: 30.1 in /  1017.8 hPa 29.8 in /  1009.0 hPa -
Precipitacions: 0 in /  0.0 mm    
Historical Graphs
 
 
Dades de taula per Novembre 5, 2017
Temps Temperatura Punt de rosada Pression baro Vent Wind Speed RĂ fegues de vent Humitat Rainfall Rate (Hourly)
00:00 55.9 °F /  13.3 °C 53.6 °F /  12.0 °C 29.8 in /  1010.0 hPa Calm     92 % 0 in /  0.0 mm
00:05 55.8 °F /  13.2 °C 53.4 °F /  11.9 °C 29.8 in /  1010.0 hPa SW 1.6 mph /  2.6 km/h 1.6 mph /  2.6 km/h 92 % 0 in /  0.0 mm
00:10 55.8 °F /  13.2 °C 53.2 °F /  11.8 °C 29.8 in /  1010.0 hPa SW 2.3 mph /  3.7 km/h 2.3 mph /  3.7 km/h 91 % 0 in /  0.0 mm
00:15 55.6 °F /  13.1 °C 53.1 °F /  11.7 °C 29.8 in /  1010.0 hPa SW 2.3 mph /  3.7 km/h 2.3 mph /  3.7 km/h 91 % 0 in /  0.0 mm
00:20 55.6 °F /  13.1 °C 53.1 °F /  11.7 °C 29.8 in /  1010.0 hPa WSW 2.4 mph /  3.9 km/h 2.4 mph /  3.9 km/h 91 % 0 in /  0.0 mm
00:25 55.6 °F /  13.1 °C 53.1 °F /  11.7 °C 29.8 in /  1010.7 hPa SW 2.4 mph /  3.9 km/h 2.4 mph /  3.9 km/h 91 % 0 in /  0.0 mm
00:30 55.4 °F /  13.0 °C 52.9 °F /  11.6 °C 29.8 in /  1010.7 hPa WSW 2.3 mph /  3.7 km/h 2.4 mph /  3.9 km/h 91 % 0 in /  0.0 mm
00:35 55.4 °F /  13.0 °C 52.9 °F /  11.6 °C 29.8 in /  1010.7 hPa WSW 1.4 mph /  2.3 km/h 1.4 mph /  2.3 km/h 91 % 0 in /  0.0 mm
00:40 55.4 °F /  13.0 °C 52.9 °F /  11.6 °C 29.8 in /  1009.0 hPa WSW 1.6 mph /  2.6 km/h 1.6 mph /  2.6 km/h 91 % 0 in /  0.0 mm
00:46 55.4 °F /  13.0 °C 52.9 °F /  11.6 °C 29.8 in /  1009.0 hPa WSW 2.3 mph /  3.7 km/h 2.3 mph /  3.7 km/h 91 % 0 in /  0.0 mm
00:51 55.4 °F /  13.0 °C 52.9 °F /  11.6 °C 29.8 in /  1009.0 hPa West 2.3 mph /  3.7 km/h 2.3 mph /  3.7 km/h 91 % 0 in /  0.0 mm
00:56 55.4 °F /  13.0 °C 52.9 °F /  11.6 °C 29.8 in /  1010.0 hPa WSW 2.3 mph /  3.7 km/h   91 % 0 in /  0.0 mm
01:01 55.2 °F /  12.9 °C 52.5 °F /  11.4 °C 29.8 in /  1010.0 hPa Calm     91 % 0 in /  0.0 mm
01:06 55.2 °F /  12.9 °C 52.9 °F /  11.6 °C 29.8 in /  1010.0 hPa Calm     92 % 0 in /  0.0 mm
01:11 55 °F /  12.8 °C 52.9 °F /  11.6 °C 29.8 in /  1010.0 hPa Calm     92 % 0 in /  0.0 mm
01:16 55 °F /  12.8 °C 52.9 °F /  11.6 °C 29.8 in /  1010.0 hPa Calm     92 % 0 in /  0.0 mm
01:21 55 °F /  12.8 °C 52.9 °F /  11.6 °C 29.8 in /  1010.0 hPa WSW 2.3 mph /  3.7 km/h 2.3 mph /  3.7 km/h 92 % 0 in /  0.0 mm
01:26 55 °F /  12.8 °C 52.9 °F /  11.6 °C 29.8 in /  1010.0 hPa WSW 1.2 mph /  1.9 km/h   92 % 0 in /  0.0 mm
01:31 54.9 °F /  12.7 °C 52.3 °F /  11.3 °C 29.8 in /  1010.0 hPa WSW 2.3 mph /  3.7 km/h 2.3 mph /  3.7 km/h 91 % 0 in /  0.0 mm
01:36 54.9 °F /  12.7 °C 52.3 °F /  11.3 °C 29.8 in /  1010.0 hPa WSW 2.3 mph /  3.7 km/h 2.3 mph /  3.7 km/h 91 % 0 in /  0.0 mm
01:41 54.9 °F /  12.7 °C 52.3 °F /  11.3 °C 29.8 in /  1010.0 hPa WSW 2.3 mph /  3.7 km/h 2.3 mph /  3.7 km/h 91 % 0 in /  0.0 mm
01:46 55 °F /  12.8 °C 52.5 °F /  11.4 °C 29.8 in /  1010.0 hPa WSW 1.2 mph /  1.9 km/h 1.2 mph /  1.9 km/h 91 % 0 in /  0.0 mm
01:51 55 °F /  12.8 °C 52.5 °F /  11.4 °C 29.8 in /  1010.0 hPa West 2.3 mph /  3.7 km/h 2.3 mph /  3.7 km/h 91 % 0 in /  0.0 mm
01:56 55 °F /  12.8 °C 52.5 °F /  11.4 °C 29.8 in /  1010.7 hPa WSW 2.3 mph /  3.7 km/h 2.3 mph /  3.7 km/h 91 % 0 in /  0.0 mm
02:01 55 °F /  12.8 °C 52.5 °F /  11.4 °C 29.8 in /  1010.7 hPa West 2.3 mph /  3.7 km/h 2.3 mph /  3.7 km/h 91 % 0 in /  0.0 mm
02:06 55 °F /  12.8 °C 52.5 °F /  11.4 °C 29.8 in /  1010.7 hPa Calm     91 % 0 in /  0.0 mm
02:11 54.9 °F /  12.7 °C 52.5 °F /  11.4 °C 29.8 in /  1010.7 hPa WSW 2.3 mph /  3.7 km/h   92 % 0 in /  0.0 mm
02:16 55.2 °F /  12.9 °C 52.5 °F /  11.4 °C 29.8 in /  1010.7 hPa WSW 4.6 mph /  7.4 km/h 4.6 mph /  7.4 km/h 91 % 0 in /  0.0 mm
02:21 55.4 °F /  13.0 °C 52.5 °F /  11.4 °C 29.8 in /  1010.7 hPa West 3.5 mph /  5.6 km/h 3.5 mph /  5.6 km/h 90 % 0 in /  0.0 mm
02:26 55.4 °F /  13.0 °C 52.5 °F /  11.4 °C 29.8 in /  1010.7 hPa West 3.5 mph /  5.6 km/h 3.5 mph /  5.6 km/h 90 % 0 in /  0.0 mm
02:31 55.6 °F /  13.1 °C 52.7 °F /  11.5 °C 29.8 in /  1010.7 hPa WSW 3.5 mph /  5.6 km/h 3.5 mph /  5.6 km/h 90 % 0 in /  0.0 mm
02:36 55.4 °F /  13.0 °C 52.5 °F /  11.4 °C 29.8 in /  1010.0 hPa WSW 4.6 mph /  7.4 km/h 4.6 mph /  7.4 km/h 90 % 0 in /  0.0 mm
02:41 55.2 °F /  12.9 °C 52.3 °F /  11.3 °C 29.8 in /  1010.0 hPa West 2.3 mph /  3.7 km/h 2.3 mph /  3.7 km/h 90 % 0 in /  0.0 mm
02:46 55.4 °F /  13.0 °C 52.9 °F /  11.6 °C 29.8 in /  1010.0 hPa WSW 2.3 mph /  3.7 km/h 2.3 mph /  3.7 km/h 91 % 0 in /  0.0 mm
02:51 55.2 °F /  12.9 °C 52.5 °F /  11.4 °C 29.8 in /  1010.7 hPa WSW 2.3 mph /  3.7 km/h 2.3 mph /  3.7 km/h 91 % 0 in /  0.0 mm
02:56 55.2 °F /  12.9 °C 52.5 °F /  11.4 °C 29.8 in /  1010.7 hPa SW 2.3 mph /  3.7 km/h 2.3 mph /  3.7 km/h 91 % 0 in /  0.0 mm
03:01 55 °F /  12.8 °C 52.5 °F /  11.4 °C 29.8 in /  1010.7 hPa SSW 2.3 mph /  3.7 km/h 2.3 mph /  3.7 km/h 91 % 0 in /  0.0 mm
03:06 55 °F /  12.8 °C 52.5 °F /  11.4 °C 29.8 in /  1010.7 hPa West 2.3 mph /  3.7 km/h 2.3 mph /  3.7 km/h 91 % 0 in /  0.0 mm
03:11 55 °F /  12.8 °C 52.5 °F /  11.4 °C 29.8 in /  1010.7 hPa West 2.3 mph /  3.7 km/h 2.3 mph /  3.7 km/h 91 % 0 in /  0.0 mm
03:16 55.2 °F /  12.9 °C 52.3 °F /  11.3 °C 29.8 in /  1010.7 hPa West 4.6 mph /  7.4 km/h 4.6 mph /  7.4 km/h 90 % 0 in /  0.0 mm
03:21 55.2 °F /  12.9 °C 52.3 °F /  11.3 °C 29.8 in /  1010.7 hPa SW 2.4 mph /  3.9 km/h 2.4 mph /  3.9 km/h 90 % 0 in /  0.0 mm
03:26 55.2 °F /  12.9 °C 52.3 °F /  11.3 °C 29.8 in /  1010.7 hPa SW 3.5 mph /  5.6 km/h 3.5 mph /  5.6 km/h 90 % 0 in /  0.0 mm
03:31 55.4 °F /  13.0 °C 52.5 °F /  11.4 °C 29.8 in /  1010.7 hPa WSW 2.3 mph /  3.7 km/h 2.3 mph /  3.7 km/h 90 % 0 in /  0.0 mm
03:36 55.2 °F /  12.9 °C 52.3 °F /  11.3 °C 29.8 in /  1010.7 hPa West 2.3 mph /  3.7 km/h 2.3 mph /  3.7 km/h 90 % 0 in /  0.0 mm
03:41 55.2 °F /  12.9 °C 52.3 °F /  11.3 °C 29.8 in /  1010.7 hPa WSW 2.4 mph /  3.9 km/h 2.4 mph /  3.9 km/h 90 % 0 in /  0.0 mm
03:46 55.2 °F /  12.9 °C 52.3 °F /  11.3 °C 29.8 in /  1010.7 hPa Calm     90 % 0 in /  0.0 mm
03:51 55.2 °F /  12.9 °C 52.3 °F /  11.3 °C 29.8 in /  1010.7 hPa WSW 1.2 mph /  1.9 km/h   90 % 0 in /  0.0 mm
03:56 55.2 °F /  12.9 °C 52.3 °F /  11.3 °C 29.8 in /  1010.7 hPa SW 1.6 mph /  2.6 km/h   90 % 0 in /  0.0 mm
04:01 55.2 °F /  12.9 °C 52 °F /  11.1 °C 29.8 in /  1010.7 hPa SSW 1.2 mph /  1.9 km/h   89 % 0 in /  0.0 mm
04:06 55.2 °F /  12.9 °C 52 °F /  11.1 °C 29.8 in /  1010.7 hPa SW 1.2 mph /  1.9 km/h   89 % 0 in /  0.0 mm
04:12 55.2 °F /  12.9 °C 52 °F /  11.1 °C 29.8 in /  1010.7 hPa WNW 1.2 mph /  1.9 km/h   89 % 0 in /  0.0 mm
04:19 55.2 °F /  12.9 °C 52 °F /  11.1 °C 29.8 in /  1010.7 hPa Calm     89 % 0 in /  0.0 mm
04:20 55.2 °F /  12.9 °C 52 °F /  11.1 °C 29.8 in /  1010.7 hPa Calm     89 % 0 in /  0.0 mm
04:21 55.2 °F /  12.9 °C 52 °F /  11.1 °C 29.9 in /  1011.7 hPa Calm     89 % 0 in /  0.0 mm
04:24 55.2 °F /  12.9 °C 52 °F /  11.1 °C 29.9 in /  1011.7 hPa Calm     89 % 0 in /  0.0 mm
04:26 55.2 °F /  12.9 °C 52 °F /  11.1 °C 29.9 in /  1011.7 hPa Calm     89 % 0 in /  0.0 mm
04:30 55.2 °F /  12.9 °C 51.6 °F /  10.9 °C 29.9 in /  1011.7 hPa WSW 0.9 mph /  1.4 km/h   88 % 0 in /  0.0 mm
04:31 55.2 °F /  12.9 °C 51.6 °F /  10.9 °C 29.9 in /  1011.7 hPa WSW 1.2 mph /  1.9 km/h   88 % 0 in /  0.0 mm
04:36 55.2 °F /  12.9 °C 51.6 °F /  10.9 °C 29.9 in /  1011.7 hPa WNW 1.2 mph /  1.9 km/h 1.2 mph /  1.9 km/h 88 % 0 in /  0.0 mm
04:41 55.2 °F /  12.9 °C 51.6 °F /  10.9 °C 29.9 in /  1011.7 hPa SW 1.2 mph /  1.9 km/h   88 % 0 in /  0.0 mm
04:46 55.2 °F /  12.9 °C 51.6 °F /  10.9 °C 29.9 in /  1011.7 hPa WNW 2.3 mph /  3.7 km/h 2.3 mph /  3.7 km/h 88 % 0 in /  0.0 mm
04:51 55 °F /  12.8 °C 51.4 °F /  10.8 °C 29.9 in /  1011.7 hPa WNW 1.2 mph /  1.9 km/h   88 % 0 in /  0.0 mm
04:56 55 °F /  12.8 °C 51.3 °F /  10.7 °C 29.9 in /  1011.7 hPa Calm     87 % 0 in /  0.0 mm
05:01 55 °F /  12.8 °C 51.3 °F /  10.7 °C 29.9 in /  1011.7 hPa WNW 1.2 mph /  1.9 km/h   87 % 0 in /  0.0 mm
05:06 54.9 °F /  12.7 °C 51.1 °F /  10.6 °C 29.9 in /  1011.7 hPa Calm     87 % 0 in /  0.0 mm
05:11 54.9 °F /  12.7 °C 51.1 °F /  10.6 °C 29.9 in /  1011.7 hPa Calm     87 % 0 in /  0.0 mm
05:16 54.9 °F /  12.7 °C 51.1 °F /  10.6 °C 29.9 in /  1011.7 hPa WNW 1.4 mph /  2.3 km/h 1.4 mph /  2.3 km/h 87 % 0 in /  0.0 mm
05:21 54.9 °F /  12.7 °C 50.7 °F /  10.4 °C 29.9 in /  1011.7 hPa NW 1.6 mph /  2.6 km/h   86 % 0 in /  0.0 mm
05:26 54.9 °F /  12.7 °C 50.7 °F /  10.4 °C 29.9 in /  1011.7 hPa Calm     86 % 0 in /  0.0 mm
05:31 54.7 °F /  12.6 °C 50.9 °F /  10.5 °C 29.9 in /  1011.7 hPa Calm     87 % 0 in /  0.0 mm
05:36 54.7 °F /  12.6 °C 50.9 °F /  10.5 °C 29.9 in /  1011.7 hPa Calm     87 % 0 in /  0.0 mm
05:41 54.9 °F /  12.7 °C 51.1 °F /  10.6 °C 29.9 in /  1011.7 hPa Calm     87 % 0 in /  0.0 mm
05:46 54.9 °F /  12.7 °C 50.7 °F /  10.4 °C 29.9 in /  1011.7 hPa ENE 2.3 mph /  3.7 km/h 2.3 mph /  3.7 km/h 86 % 0 in /  0.0 mm
05:51 54.7 °F /  12.6 °C 50.5 °F /  10.3 °C 29.9 in /  1011.7 hPa Calm     86 % 0 in /  0.0 mm
05:56 54.5 °F /  12.5 °C 50.7 °F /  10.4 °C 29.9 in /  1011.7 hPa NE 4.6 mph /  7.4 km/h 4.6 mph /  7.4 km/h 87 % 0 in /  0.0 mm
06:01 54.7 °F /  12.6 °C 50.9 °F /  10.5 °C 29.9 in /  1011.7 hPa NNE 2.3 mph /  3.7 km/h   87 % 0 in /  0.0 mm
06:06 54.7 °F /  12.6 °C 50.9 °F /  10.5 °C 29.9 in /  1012.8 hPa North 4.6 mph /  7.4 km/h 4.6 mph /  7.4 km/h 87 % 0 in /  0.0 mm
06:11 54.7 °F /  12.6 °C 50.9 °F /  10.5 °C 29.9 in /  1012.8 hPa North 1.2 mph /  1.9 km/h   87 % 0 in /  0.0 mm
06:16 54.5 °F /  12.5 °C 50.7 °F /  10.4 °C 29.9 in /  1012.8 hPa Calm     87 % 0 in /  0.0 mm
06:21 54.3 °F /  12.4 °C 50.5 °F /  10.3 °C 29.9 in /  1012.8 hPa Calm     87 % 0 in /  0.0 mm
06:26 54.1 °F /  12.3 °C 50.4 °F /  10.2 °C 29.9 in /  1012.8 hPa NW 1.2 mph /  1.9 km/h   87 % 0 in /  0.0 mm
06:31 54.1 °F /  12.3 °C 50.4 °F /  10.2 °C 29.9 in /  1012.8 hPa NW 2.3 mph /  3.7 km/h 2.3 mph /  3.7 km/h 87 % 0 in /  0.0 mm
06:36 54.1 °F /  12.3 °C 50.4 °F /  10.2 °C 29.9 in /  1013.8 hPa Calm     87 % 0 in /  0.0 mm
06:41 54.1 °F /  12.3 °C 50.4 °F /  10.2 °C 29.9 in /  1013.8 hPa West 2.3 mph /  3.7 km/h 2.3 mph /  3.7 km/h 87 % 0 in /  0.0 mm
06:47 54.1 °F /  12.3 °C 50.4 °F /  10.2 °C 29.9 in /  1013.8 hPa WSW 3.1 mph /  5.0 km/h 3.1 mph /  5.0 km/h 87 % 0 in /  0.0 mm
06:52 54 °F /  12.2 °C 50.2 °F /  10.1 °C 29.9 in /  1013.8 hPa West 4.6 mph /  7.4 km/h 4.6 mph /  7.4 km/h 87 % 0 in /  0.0 mm
06:57 54 °F /  12.2 °C 50.2 °F /  10.1 °C 29.9 in /  1013.8 hPa Calm     87 % 0 in /  0.0 mm
07:02 53.8 °F /  12.1 °C 50 °F /  10.0 °C 29.9 in /  1013.8 hPa Calm     87 % 0 in /  0.0 mm
07:07 53.8 °F /  12.1 °C 50 °F /  10.0 °C 29.9 in /  1013.8 hPa NNE 1.2 mph /  1.9 km/h   87 % 0 in /  0.0 mm
07:12 54 °F /  12.2 °C 50.2 °F /  10.1 °C 29.9 in /  1013.8 hPa West 4.3 mph /  6.9 km/h 4.3 mph /  6.9 km/h 87 % 0 in /  0.0 mm
07:17 54.1 °F /  12.3 °C 50 °F /  10.0 °C 29.9 in /  1013.8 hPa WSW 2.3 mph /  3.7 km/h 2.3 mph /  3.7 km/h 86 % 0 in /  0.0 mm
07:22 54.1 °F /  12.3 °C 49.6 °F /  9.8 °C 29.9 in /  1013.8 hPa SW 4.6 mph /  7.4 km/h   85 % 0 in /  0.0 mm
07:27 54.1 °F /  12.3 °C 49.6 °F /  9.8 °C 29.9 in /  1013.8 hPa NNW 3.6 mph /  5.8 km/h 3.6 mph /  5.8 km/h 85 % 0 in /  0.0 mm
07:32 54.1 °F /  12.3 °C 49.6 °F /  9.8 °C 29.9 in /  1013.8 hPa NE 1.2 mph /  1.9 km/h   85 % 0 in /  0.0 mm
07:37 54.3 °F /  12.4 °C 49.8 °F /  9.9 °C 29.9 in /  1012.8 hPa SW 2.3 mph /  3.7 km/h 2.3 mph /  3.7 km/h 85 % 0 in /  0.0 mm
07:42 54.3 °F /  12.4 °C 49.8 °F /  9.9 °C 29.9 in /  1012.8 hPa ENE 3.5 mph /  5.6 km/h 3.5 mph /  5.6 km/h 85 % 0 in /  0.0 mm
07:47 54.1 °F /  12.3 °C 49.6 °F /  9.8 °C 29.9 in /  1012.8 hPa WNW 2.9 mph /  4.7 km/h 2.9 mph /  4.7 km/h 85 % 0 in /  0.0 mm
07:52 54.1 °F /  12.3 °C 49.6 °F /  9.8 °C 29.9 in /  1013.8 hPa South 1.4 mph /  2.3 km/h   85 % 0 in /  0.0 mm
07:57 54 °F /  12.2 °C 49.6 °F /  9.8 °C 29.9 in /  1013.8 hPa WNW 2.3 mph /  3.7 km/h 2.3 mph /  3.7 km/h 85 % 0 in /  0.0 mm
08:02 54 °F /  12.2 °C 49.6 °F /  9.8 °C 29.9 in /  1013.8 hPa NW 1.2 mph /  1.9 km/h   85 % 0 in /  0.0 mm
08:07 53.8 °F /  12.1 °C 49.5 °F /  9.7 °C 29.9 in /  1013.8 hPa NNW 2.3 mph /  3.7 km/h 2.3 mph /  3.7 km/h 85 % 0 in /  0.0 mm
08:12 54 °F /  12.2 °C 49.6 °F /  9.8 °C 29.9 in /  1013.8 hPa West 3.5 mph /  5.6 km/h 3.5 mph /  5.6 km/h 85 % 0 in /  0.0 mm
08:17 54 °F /  12.2 °C 49.3 °F /  9.6 °C 29.9 in /  1013.8 hPa SSW 3.5 mph /  5.6 km/h 3.5 mph /  5.6 km/h 84 % 0 in /  0.0 mm
08:22 54 °F /  12.2 °C 49.3 °F /  9.6 °C 30 in /  1014.8 hPa West 3.5 mph /  5.6 km/h 3.5 mph /  5.6 km/h 84 % 0 in /  0.0 mm
08:27 54 °F /  12.2 °C 49.3 °F /  9.6 °C 30 in /  1014.8 hPa WNW 3.5 mph /  5.6 km/h 3.5 mph /  5.6 km/h 84 % 0 in /  0.0 mm
08:32 54 °F /  12.2 °C 49.3 °F /  9.6 °C 30 in /  1014.8 hPa West 2.9 mph /  4.7 km/h 2.9 mph /  4.7 km/h 84 % 0 in /  0.0 mm
08:37 54.1 °F /  12.3 °C 49.5 °F /  9.7 °C 30 in /  1014.8 hPa WSW 3.5 mph /  5.6 km/h 3.5 mph /  5.6 km/h 84 % 0 in /  0.0 mm
08:42 54.1 °F /  12.3 °C 49.1 °F /  9.5 °C 30 in /  1014.8 hPa Calm     83 % 0 in /  0.0 mm
08:47 54.1 °F /  12.3 °C 49.1 °F /  9.5 °C 30 in /  1014.8 hPa NNE 2 mph /  3.2 km/h 2 mph /  3.2 km/h 83 % 0 in /  0.0 mm
08:52 54.5 °F /  12.5 °C 49.5 °F /  9.7 °C 30 in /  1014.8 hPa ENE 1.6 mph /  2.6 km/h 1.6 mph /  2.6 km/h 83 % 0 in /  0.0 mm
08:57 55 °F /  12.8 °C 50.4 °F /  10.2 °C 30 in /  1014.8 hPa North 2.3 mph /  3.7 km/h   84 % 0 in /  0.0 mm
09:02 55.2 °F /  12.9 °C 50.5 °F /  10.3 °C 30 in /  1014.8 hPa WSW 1.2 mph /  1.9 km/h 1.2 mph /  1.9 km/h 84 % 0 in /  0.0 mm
09:07 56.3 °F /  13.5 °C 51.4 °F /  10.8 °C 30 in /  1014.8 hPa NW 2.3 mph /  3.7 km/h 2.3 mph /  3.7 km/h 84 % 0 in /  0.0 mm
09:12 57.2 °F /  14.0 °C 52.3 °F /  11.3 °C 30 in /  1014.8 hPa North 1.6 mph /  2.6 km/h 1.6 mph /  2.6 km/h 84 % 0 in /  0.0 mm
09:17 57.7 °F /  14.3 °C 52.5 °F /  11.4 °C 30 in /  1014.8 hPa SSW 1.2 mph /  1.9 km/h   83 % 0 in /  0.0 mm
09:22 57.6 °F /  14.2 °C 52.3 °F /  11.3 °C 30 in /  1014.8 hPa West 2.9 mph /  4.7 km/h 2.9 mph /  4.7 km/h 83 % 0 in /  0.0 mm
09:27 58.1 °F /  14.5 °C 52.5 °F /  11.4 °C 30 in /  1014.8 hPa WSW 3.1 mph /  5.0 km/h   82 % 0 in /  0.0 mm
09:32 57.7 °F /  14.3 °C 52.3 °F /  11.3 °C 30 in /  1014.8 hPa ENE 6.9 mph /  11.1 km/h 6.9 mph /  11.1 km/h 82 % 0 in /  0.0 mm
09:37 58.3 °F /  14.6 °C 52.5 °F /  11.4 °C 30 in /  1015.8 hPa WSW 3.5 mph /  5.6 km/h 3.5 mph /  5.6 km/h 81 % 0 in /  0.0 mm
09:42 58.3 °F /  14.6 °C 52.2 °F /  11.2 °C 30 in /  1015.8 hPa SW 4.6 mph /  7.4 km/h 4.6 mph /  7.4 km/h 80 % 0 in /  0.0 mm
09:47 58.3 °F /  14.6 °C 52.2 °F /  11.2 °C 30 in /  1015.8 hPa West 3.5 mph /  5.6 km/h 3.5 mph /  5.6 km/h 80 % 0 in /  0.0 mm
09:52 58.1 °F /  14.5 °C 51.6 °F /  10.9 °C 30 in /  1015.8 hPa WSW 5.8 mph /  9.3 km/h 5.8 mph /  9.3 km/h 79 % 0 in /  0.0 mm
09:57 58.3 °F /  14.6 °C 51.4 °F /  10.8 °C 30 in /  1015.8 hPa West 5.8 mph /  9.3 km/h 5.8 mph /  9.3 km/h 78 % 0 in /  0.0 mm
10:02 59 °F /  15.0 °C 52.2 °F /  11.2 °C 30 in /  1015.8 hPa WSW 4 mph /  6.4 km/h 4 mph /  6.4 km/h 78 % 0 in /  0.0 mm
10:07 58.6 °F /  14.8 °C 51.4 °F /  10.8 °C 30 in /  1015.8 hPa West 8.1 mph /  13.0 km/h 8.1 mph /  13.0 km/h 77 % 0 in /  0.0 mm
10:12 59 °F /  15.0 °C 51.4 °F /  10.8 °C 30 in /  1015.8 hPa West 4.6 mph /  7.4 km/h 4.6 mph /  7.4 km/h 76 % 0 in /  0.0 mm
10:17 59.4 °F /  15.2 °C 51.8 °F /  11.0 °C 30 in /  1015.8 hPa WSW 4.6 mph /  7.4 km/h 4.6 mph /  7.4 km/h 76 % 0 in /  0.0 mm
10:22 60.1 °F /  15.6 °C 52.5 °F /  11.4 °C 30 in /  1014.8 hPa West 3.8 mph /  6.1 km/h 3.8 mph /  6.1 km/h 76 % 0 in /  0.0 mm
10:27 60.1 °F /  15.6 °C 52.5 °F /  11.4 °C 30 in /  1014.8 hPa WSW 8.1 mph /  13.0 km/h 8.1 mph /  13.0 km/h 76 % 0 in /  0.0 mm
10:32 61 °F /  16.1 °C 53.1 °F /  11.7 °C 30 in /  1014.8 hPa SSE 2.4 mph /  3.9 km/h 2.4 mph /  3.9 km/h 75 % 0 in /  0.0 mm
10:37 61 °F /  16.1 °C 52.5 °F /  11.4 °C 30 in /  1014.8 hPa NW 4.6 mph /  7.4 km/h 4.6 mph /  7.4 km/h 74 % 0 in /  0.0 mm
10:42 60.8 °F /  16.0 °C 52.5 °F /  11.4 °C 30 in /  1014.8 hPa West 8.1 mph /  13.0 km/h 8.1 mph /  13.0 km/h 74 % 0 in /  0.0 mm
10:47 61 °F /  16.1 °C 52 °F /  11.1 °C 30 in /  1014.8 hPa SW 6.9 mph /  11.1 km/h 6.9 mph /  11.1 km/h 72 % 0 in /  0.0 mm
10:52 60.8 °F /  16.0 °C 51.6 °F /  10.9 °C 30 in /  1014.8 hPa WSW 5.8 mph /  9.3 km/h 5.8 mph /  9.3 km/h 72 % 0 in /  0.0 mm
10:57 60.8 °F /  16.0 °C 51.1 °F /  10.6 °C 30 in /  1014.8 hPa West 5.8 mph /  9.3 km/h 5.8 mph /  9.3 km/h 70 % 0 in /  0.0 mm
11:02 61 °F /  16.1 °C 51.4 °F /  10.8 °C 30 in /  1014.8 hPa WSW 5.8 mph /  9.3 km/h 5.8 mph /  9.3 km/h 71 % 0 in /  0.0 mm
11:07 61 °F /  16.1 °C 51.1 °F /  10.6 °C 30 in /  1014.8 hPa WSW 5.8 mph /  9.3 km/h 5.8 mph /  9.3 km/h 70 % 0 in /  0.0 mm
11:12 61.2 °F /  16.2 °C 50.9 °F /  10.5 °C 30 in /  1014.8 hPa SW 3.5 mph /  5.6 km/h 3.5 mph /  5.6 km/h 69 % 0 in /  0.0 mm
11:17 61.9 °F /  16.6 °C 51.6 °F /  10.9 °C 30 in /  1014.8 hPa WSW 4.6 mph /  7.4 km/h 4.6 mph /  7.4 km/h 69 % 0 in /  0.0 mm
11:22 62.1 °F /  16.7 °C 52.2 °F /  11.2 °C 30 in /  1014.8 hPa SW 8.1 mph /  13.0 km/h 8.1 mph /  13.0 km/h 70 % 0 in /  0.0 mm
11:27 62.1 °F /  16.7 °C 51.4 °F /  10.8 °C 30 in /  1014.8 hPa WSW 5.8 mph /  9.3 km/h 5.8 mph /  9.3 km/h 68 % 0 in /  0.0 mm
11:32 62.6 °F /  17.0 °C 51.4 °F /  10.8 °C 30 in /  1014.8 hPa SW 4.3 mph /  6.9 km/h 4.3 mph /  6.9 km/h 67 % 0 in /  0.0 mm
11:37 62.8 °F /  17.1 °C 51.3 °F /  10.7 °C 30 in /  1014.8 hPa NNE 2.3 mph /  3.7 km/h 2.3 mph /  3.7 km/h 66 % 0 in /  0.0 mm
11:42 63.3 °F /  17.4 °C 51.8 °F /  11.0 °C 30 in /  1014.8 hPa NNE 4.6 mph /  7.4 km/h 4.6 mph /  7.4 km/h 66 % 0 in /  0.0 mm
11:47 63.1 °F /  17.3 °C 51.3 °F /  10.7 °C 30 in /  1014.8 hPa West 3.5 mph /  5.6 km/h 3.5 mph /  5.6 km/h 65 % 0 in /  0.0 mm
11:52 63.5 °F /  17.5 °C 51.1 °F /  10.6 °C 30 in /  1014.8 hPa NNE 3.5 mph /  5.6 km/h 3.6 mph /  5.8 km/h 64 % 0 in /  0.0 mm
11:57 63.5 °F /  17.5 °C 50.7 °F /  10.4 °C 30 in /  1014.8 hPa SSW 5.8 mph /  9.3 km/h 5.8 mph /  9.3 km/h 63 % 0 in /  0.0 mm
12:02 63.7 °F /  17.6 °C 50.7 °F /  10.4 °C 30 in /  1014.8 hPa NNW 3.5 mph /  5.6 km/h 3.5 mph /  5.6 km/h 63 % 0 in /  0.0 mm
12:07 64.2 °F /  17.9 °C 51.4 °F /  10.8 °C 30 in /  1014.8 hPa SE 5.4 mph /  8.7 km/h 5.4 mph /  8.7 km/h 63 % 0 in /  0.0 mm
12:12 64 °F /  17.8 °C 50.7 °F /  10.4 °C 30 in /  1014.8 hPa WSW 8.1 mph /  13.0 km/h 8.1 mph /  13.0 km/h 62 % 0 in /  0.0 mm
12:17 63.5 °F /  17.5 °C 49.5 °F /  9.7 °C 30 in /  1014.8 hPa West 11.5 mph /  18.5 km/h 11.5 mph /  18.5 km/h 60 % 0 in /  0.0 mm
12:22 63.7 °F /  17.6 °C 49.5 °F /  9.7 °C 30 in /  1014.8 hPa SW 7.8 mph /  12.6 km/h 7.8 mph /  12.6 km/h 60 % 0 in /  0.0 mm
12:27 64.2 °F /  17.9 °C 49.6 °F /  9.8 °C 30 in /  1014.8 hPa NNE 2.6 mph /  4.2 km/h 3.1 mph /  5.0 km/h 59 % 0 in /  0.0 mm
12:32 64 °F /  17.8 °C 49.5 °F /  9.7 °C 30 in /  1014.8 hPa West 8.1 mph /  13.0 km/h 8.1 mph /  13.0 km/h 59 % 0 in /  0.0 mm
12:37 64 °F /  17.8 °C 49.5 °F /  9.7 °C 30 in /  1014.8 hPa WSW 5.8 mph /  9.3 km/h 6.7 mph /  10.8 km/h 59 % 0 in /  0.0 mm
12:42 63.5 °F /  17.5 °C 48 °F /  8.9 °C 30 in /  1014.8 hPa SW 8.1 mph /  13.0 km/h 8.1 mph /  13.0 km/h 57 % 0 in /  0.0 mm
12:47 63.7 °F /  17.6 °C 48.2 °F /  9.0 °C 30 in /  1014.8 hPa NW 8.1 mph /  13.0 km/h 8.1 mph /  13.0 km/h 57 % 0 in /  0.0 mm
12:52 64 °F /  17.8 °C 48.9 °F /  9.4 °C 29.9 in /  1013.8 hPa West 5.8 mph /  9.3 km/h 5.8 mph /  9.3 km/h 58 % 0 in /  0.0 mm
12:57 64.2 °F /  17.9 °C 48.7 °F /  9.3 °C 29.9 in /  1013.8 hPa West 8.1 mph /  13.0 km/h 8.1 mph /  13.0 km/h 57 % 0 in /  0.0 mm
13:02 64.2 °F /  17.9 °C 48.2 °F /  9.0 °C 29.9 in /  1013.8 hPa WSW 6.9 mph /  11.1 km/h 6.9 mph /  11.1 km/h 56 % 0 in /  0.0 mm
13:07 64.4 °F /  18.0 °C 48.4 °F /  9.1 °C 29.9 in /  1013.8 hPa NNW 6.4 mph /  10.3 km/h 7.4 mph /  11.9 km/h 56 % 0 in /  0.0 mm
13:12 64.4 °F /  18.0 °C 48.4 °F /  9.1 °C 29.9 in /  1013.8 hPa SSE 11.5 mph /  18.5 km/h 11.5 mph /  18.5 km/h 56 % 0 in /  0.0 mm
13:17 64.4 °F /  18.0 °C 48.4 °F /  9.1 °C 29.9 in /  1013.8 hPa WSW 10.4 mph /  16.7 km/h 10.4 mph /  16.7 km/h 56 % 0 in /  0.0 mm
13:22 64.4 °F /  18.0 °C 47.8 °F /  8.8 °C 29.9 in /  1013.8 hPa West 6.9 mph /  11.1 km/h 6.9 mph /  11.1 km/h 55 % 0 in /  0.0 mm
13:28 64.6 °F /  18.1 °C 48 °F /  8.9 °C 29.9 in /  1013.8 hPa NNW 8.1 mph /  13.0 km/h 8.1 mph /  13.0 km/h 55 % 0 in /  0.0 mm
13:33 64.2 °F /  17.9 °C 47.1 °F /  8.4 °C 29.9 in /  1013.8 hPa SSW 11.5 mph /  18.5 km/h 11.5 mph /  18.5 km/h 54 % 0 in /  0.0 mm
13:38 64.2 °F /  17.9 °C 47.1 °F /  8.4 °C 30 in /  1014.8 hPa SSW 9.2 mph /  14.8 km/h 9.2 mph /  14.8 km/h 54 % 0 in /  0.0 mm
13:43 64 °F /  17.8 °C 47.1 °F /  8.4 °C 30 in /  1014.8 hPa SW 12.7 mph /  20.4 km/h 12.7 mph /  20.4 km/h 54 % 0 in /  0.0 mm
13:48 64.2 °F /  17.9 °C 47.1 °F /  8.4 °C 30 in /  1014.8 hPa West 5.8 mph /  9.3 km/h 5.8 mph /  9.3 km/h 54 % 0 in /  0.0 mm
13:53 64.6 °F /  18.1 °C 47.7 °F /  8.7 °C 30 in /  1014.8 hPa West 8.1 mph /  13.0 km/h 8.1 mph /  13.0 km/h 54 % 0 in /  0.0 mm
13:58 64.9 °F /  18.3 °C 47.8 °F /  8.8 °C 30 in /  1014.8 hPa WNW 5.8 mph /  9.3 km/h 5.8 mph /  9.3 km/h 54 % 0 in /  0.0 mm
14:03 64.9 °F /  18.3 °C 47.8 °F /  8.8 °C 30 in /  1014.8 hPa WNW 8.1 mph /  13.0 km/h 8.1 mph /  13.0 km/h 54 % 0 in /  0.0 mm
14:08 64.8 °F /  18.2 °C 47.7 °F /  8.7 °C 30 in /  1014.8 hPa South 8.1 mph /  13.0 km/h 8.1 mph /  13.0 km/h 54 % 0 in /  0.0 mm
14:13 64.4 °F /  18.0 °C 46.9 °F /  8.3 °C 30 in /  1014.8 hPa WSW 8.1 mph /  13.0 km/h 8.1 mph /  13.0 km/h 53 % 0 in /  0.0 mm
14:18 64.9 °F /  18.3 °C 47.8 °F /  8.8 °C 30 in /  1014.8 hPa WSW 4.6 mph /  7.4 km/h 4.6 mph /  7.4 km/h 54 % 0 in /  0.0 mm
14:25 65.5 °F /  18.6 °C 48.4 °F /  9.1 °C 29.9 in /  1013.8 hPa WSW 5.8 mph /  9.3 km/h 5.8 mph /  9.3 km/h 54 % 0 in /  0.0 mm
14:30 65.5 °F /  18.6 °C 48.4 °F /  9.1 °C 29.9 in /  1013.8 hPa WNW 5.8 mph /  9.3 km/h 5.8 mph /  9.3 km/h 54 % 0 in /  0.0 mm
14:35 65.5 °F /  18.6 °C 47.8 °F /  8.8 °C 29.9 in /  1013.8 hPa West 5.9 mph /  9.5 km/h 5.9 mph /  9.5 km/h 53 % 0 in /  0.0 mm
14:40 65.1 °F /  18.4 °C 47.1 °F /  8.4 °C 30 in /  1014.8 hPa West 10.4 mph /  16.7 km/h 10.4 mph /  16.7 km/h 52 % 0 in /  0.0 mm
14:45 65.1 °F /  18.4 °C 47.1 °F /  8.4 °C 30 in /  1014.8 hPa SW 5.8 mph /  9.3 km/h 5.8 mph /  9.3 km/h 52 % 0 in /  0.0 mm
14:50 65.7 °F /  18.7 °C 48 °F /  8.9 °C 30 in /  1014.8 hPa West 4.6 mph /  7.4 km/h 4.6 mph /  7.4 km/h 53 % 0 in /  0.0 mm
14:55 65.7 °F /  18.7 °C 47.5 °F /  8.6 °C 30 in /  1014.8 hPa West 8.1 mph /  13.0 km/h 8.1 mph /  13.0 km/h 52 % 0 in /  0.0 mm
15:00 65.5 °F /  18.6 °C 46.9 °F /  8.3 °C 30 in /  1014.8 hPa WSW 8.1 mph /  13.0 km/h 8.1 mph /  13.0 km/h 51 % 0 in /  0.0 mm
15:05 65.5 °F /  18.6 °C 46.9 °F /  8.3 °C 30 in /  1014.8 hPa WSW 6.9 mph /  11.1 km/h 6.9 mph /  11.1 km/h 51 % 0 in /  0.0 mm
15:10 65.5 °F /  18.6 °C 46.9 °F /  8.3 °C 30 in /  1014.8 hPa West 5.8 mph /  9.3 km/h 5.8 mph /  9.3 km/h 51 % 0 in /  0.0 mm
15:15 65.8 °F /  18.8 °C 47.1 °F /  8.4 °C 30 in /  1014.8 hPa WSW 6.9 mph /  11.1 km/h 6.9 mph /  11.1 km/h 51 % 0 in /  0.0 mm
15:20 66 °F /  18.9 °C 47.5 °F /  8.6 °C 30 in /  1014.8 hPa West 5.8 mph /  9.3 km/h 5.8 mph /  9.3 km/h 51 % 0 in /  0.0 mm
15:25 66.2 °F /  19.0 °C 46.9 °F /  8.3 °C 30 in /  1014.8 hPa SW 8.5 mph /  13.7 km/h 8.5 mph /  13.7 km/h 50 % 0 in /  0.0 mm
15:30 66.4 °F /  19.1 °C 47.1 °F /  8.4 °C 30 in /  1014.8 hPa NW 4.6 mph /  7.4 km/h 4.6 mph /  7.4 km/h 50 % 0 in /  0.0 mm
15:35 66.2 °F /  19.0 °C 46.9 °F /  8.3 °C 30 in /  1014.8 hPa WSW 4.6 mph /  7.4 km/h 4.6 mph /  7.4 km/h 50 % 0 in /  0.0 mm
15:40 66.4 °F /  19.1 °C 47.1 °F /  8.4 °C 29.9 in /  1013.8 hPa WSW 3.5 mph /  5.6 km/h 3.5 mph /  5.6 km/h 50 % 0 in /  0.0 mm
15:45 66.2 °F /  19.0 °C 46.6 °F /  8.1 °C 29.9 in /  1013.8 hPa WSW 5.8 mph /  9.3 km/h 5.9 mph /  9.5 km/h 49 % 0 in /  0.0 mm
15:50 65.8 °F /  18.8 °C 46.8 °F /  8.2 °C 29.9 in /  1013.8 hPa NW 4.6 mph /  7.4 km/h 4.6 mph /  7.4 km/h 50 % 0 in /  0.0 mm
15:55 65.8 °F /  18.8 °C 46.8 °F /  8.2 °C 30 in /  1014.8 hPa WSW 5.8 mph /  9.3 km/h 5.8 mph /  9.3 km/h 50 % 0 in /  0.0 mm
16:00 65.7 °F /  18.7 °C 46 °F /  7.8 °C 30 in /  1014.8 hPa SW 6.9 mph /  11.1 km/h 6.9 mph /  11.1 km/h 49 % 0 in /  0.0 mm
16:05 65.7 °F /  18.7 °C 46.6 °F /  8.1 °C 30 in /  1014.8 hPa SW 7.6 mph /  12.2 km/h 7.6 mph /  12.2 km/h 50 % 0 in /  0.0 mm
16:10 65.3 °F /  18.5 °C 45.7 °F /  7.6 °C 29.9 in /  1013.8 hPa WSW 8.1 mph /  13.0 km/h 8.1 mph /  13.0 km/h 49 % 0 in /  0.0 mm
16:15 65.1 °F /  18.4 °C 45.5 °F /  7.5 °C 29.9 in /  1013.8 hPa WNW 4.6 mph /  7.4 km/h 4.6 mph /  7.4 km/h 49 % 0 in /  0.0 mm
16:20 65.1 °F /  18.4 °C 45.5 °F /  7.5 °C 29.9 in /  1013.8 hPa WSW 3.5 mph /  5.6 km/h 4.3 mph /  6.9 km/h 49 % 0 in /  0.0 mm
16:25 64.9 °F /  18.3 °C 44.8 °F /  7.1 °C 29.9 in /  1013.8 hPa West 10.4 mph /  16.7 km/h 10.4 mph /  16.7 km/h 48 % 0 in /  0.0 mm
16:30 64.9 °F /  18.3 °C 45.3 °F /  7.4 °C 29.9 in /  1013.8 hPa West 6.9 mph /  11.1 km/h 6.9 mph /  11.1 km/h 49 % 0 in /  0.0 mm
16:35 64.8 °F /  18.2 °C 44.6 °F /  7.0 °C 29.9 in /  1013.8 hPa WSW 4.6 mph /  7.4 km/h 4.6 mph /  7.4 km/h 48 % 0 in /  0.0 mm
16:40 64.6 °F /  18.1 °C 44.4 °F /  6.9 °C 29.9 in /  1013.8 hPa WSW 5.8 mph /  9.3 km/h 5.8 mph /  9.3 km/h 48 % 0 in /  0.0 mm
16:41 64.6 °F /  18.1 °C 44.4 °F /  6.9 °C 29.9 in /  1013.8 hPa WSW 4.6 mph /  7.4 km/h 4.6 mph /  7.4 km/h 48 % 0 in /  0.0 mm
16:46 64.4 °F /  18.0 °C 44.2 °F /  6.8 °C 29.9 in /  1013.8 hPa West 8.1 mph /  13.0 km/h 8.1 mph /  13.0 km/h 48 % 0 in /  0.0 mm
16:51 64 °F /  17.8 °C 43.9 °F /  6.6 °C 29.9 in /  1013.8 hPa WSW 4.6 mph /  7.4 km/h 4.6 mph /  7.4 km/h 48 % 0 in /  0.0 mm
16:56 63.7 °F /  17.6 °C 43.5 °F /  6.4 °C 29.9 in /  1013.8 hPa SW 4.6 mph /  7.4 km/h 4.6 mph /  7.4 km/h 48 % 0 in /  0.0 mm
17:01 63.5 °F /  17.5 °C 43.3 °F /  6.3 °C 29.9 in /  1013.8 hPa WSW 5.8 mph /  9.3 km/h 5.8 mph /  9.3 km/h 48 % 0 in /  0.0 mm
17:06 63.1 °F /  17.3 °C 43.2 °F /  6.2 °C 30 in /  1014.8 hPa WSW 4.6 mph /  7.4 km/h 4.6 mph /  7.4 km/h 48 % 0 in /  0.0 mm
17:07 63 °F /  17.2 °C 43 °F /  6.1 °C 30 in /  1014.8 hPa SSW 4.6 mph /  7.4 km/h 4.6 mph /  7.4 km/h 48 % 0 in /  0.0 mm
17:12 62.6 °F /  17.0 °C 42.6 °F /  5.9 °C 30 in /  1014.8 hPa SW 5.8 mph /  9.3 km/h 5.8 mph /  9.3 km/h 48 % 0 in /  0.0 mm
17:17 62.1 °F /  16.7 °C 42.6 °F /  5.9 °C 30 in /  1014.8 hPa WNW 5.8 mph /  9.3 km/h 5.9 mph /  9.5 km/h 49 % 0 in /  0.0 mm
17:22 61.7 °F /  16.5 °C 42.3 °F /  5.7 °C 30 in /  1014.8 hPa West 3.8 mph /  6.1 km/h 3.8 mph /  6.1 km/h 49 % 0 in /  0.0 mm
17:27 61.5 °F /  16.4 °C 42.3 °F /  5.7 °C 30 in /  1014.8 hPa SW 3.5 mph /  5.6 km/h 3.5 mph /  5.6 km/h 49 % 0 in /  0.0 mm
17:32 61.2 °F /  16.2 °C 41.7 °F /  5.4 °C 30 in /  1014.8 hPa West 3.5 mph /  5.6 km/h 3.5 mph /  5.6 km/h 49 % 0 in /  0.0 mm
17:37 60.8 °F /  16.0 °C 41.5 °F /  5.3 °C 30 in /  1014.8 hPa WNW 2.3 mph /  3.7 km/h 2.3 mph /  3.7 km/h 49 % 0 in /  0.0 mm
17:42 60.4 °F /  15.8 °C 41.7 °F /  5.4 °C 30 in /  1014.8 hPa West 4.6 mph /  7.4 km/h 4.6 mph /  7.4 km/h 50 % 0 in /  0.0 mm
17:47 60.3 °F /  15.7 °C 41 °F /  5.0 °C 30 in /  1014.8 hPa WSW 5.8 mph /  9.3 km/h 5.8 mph /  9.3 km/h 49 % 0 in /  0.0 mm
17:52 60.1 °F /  15.6 °C 41.4 °F /  5.2 °C 30 in /  1014.8 hPa SW 5.9 mph /  9.5 km/h 5.9 mph /  9.5 km/h 50 % 0 in /  0.0 mm
17:57 59.9 °F /  15.5 °C 41.2 °F /  5.1 °C 30 in /  1014.8 hPa West 3.3 mph /  5.3 km/h 3.3 mph /  5.3 km/h 50 % 0 in /  0.0 mm
18:02 59.9 °F /  15.5 °C 41.2 °F /  5.1 °C 30 in /  1014.8 hPa WNW 4.6 mph /  7.4 km/h 4.6 mph /  7.4 km/h 50 % 0 in /  0.0 mm
18:07 59.9 °F /  15.5 °C 41.2 °F /  5.1 °C 30 in /  1014.8 hPa West 5.8 mph /  9.3 km/h 5.8 mph /  9.3 km/h 50 % 0 in /  0.0 mm
18:10 49.5 °F /  9.7 °C 35.2 °F /  1.8 °C 30 in /  1016.8 hPa West 3 mph /  4.8 km/h 6 mph /  9.7 km/h 58 % 0 in /  0.0 mm
18:12 59.7 °F /  15.4 °C 41 °F /  5.0 °C 30 in /  1014.8 hPa WNW 5.8 mph /  9.3 km/h 5.8 mph /  9.3 km/h 50 % 0 in /  0.0 mm
18:17 59.5 °F /  15.3 °C 40.8 °F /  4.9 °C 30 in /  1014.8 hPa West 5.8 mph /  9.3 km/h 5.8 mph /  9.3 km/h 50 % 0 in /  0.0 mm
18:20 49.5 °F /  9.7 °C 35.8 °F /  2.1 °C 30 in /  1016.8 hPa West 3 mph /  4.8 km/h 7 mph /  11.3 km/h 59 % 0 in /  0.0 mm
18:23 59.5 °F /  15.3 °C 40.8 °F /  4.9 °C 30 in /  1015.8 hPa WNW 8.1 mph /  13.0 km/h 8.1 mph /  13.0 km/h 50 % 0 in /  0.0 mm
18:28 59.7 °F /  15.4 °C 41 °F /  5.0 °C 30 in /  1015.8 hPa WSW 8.1 mph /  13.0 km/h 8.1 mph /  13.0 km/h 50 % 0 in /  0.0 mm
18:30 49.3 °F /  9.6 °C 35.4 °F /  1.9 °C 30.1 in /  1017.8 hPa WSW 1 mph /  1.6 km/h 4 mph /  6.4 km/h 59 % 0 in /  0.0 mm
18:33 59.5 °F /  15.3 °C 40.8 °F /  4.9 °C 30 in /  1015.8 hPa West 4.6 mph /  7.4 km/h 4.6 mph /  7.4 km/h 50 % 0 in /  0.0 mm
18:38 59.4 °F /  15.2 °C 40.6 °F /  4.8 °C 30 in /  1014.8 hPa WSW 6.2 mph /  10.0 km/h 6.2 mph /  10.0 km/h 50 % 0 in /  0.0 mm
18:40 48.9 °F /  9.4 °C 35.6 °F /  2.0 °C 30 in /  1016.8 hPa SW 1 mph /  1.6 km/h 4 mph /  6.4 km/h 60 % 0 in /  0.0 mm
18:43 59.5 °F /  15.3 °C 39.7 °F /  4.3 °C 30 in /  1014.8 hPa West 12.7 mph /  20.4 km/h 12.7 mph /  20.4 km/h 48 % 0 in /  0.0 mm
18:48 59.4 °F /  15.2 °C 39.7 °F /  4.3 °C 30 in /  1014.8 hPa West 7.1 mph /  11.4 km/h 8.5 mph /  13.7 km/h 48 % 0 in /  0.0 mm
18:50 48.4 °F /  9.1 °C 35.1 °F /  1.7 °C 30 in /  1016.8 hPa SW 1 mph /  1.6 km/h 3 mph /  4.8 km/h 60 % 0 in /  0.0 mm
18:53 59 °F /  15.0 °C 39.4 °F /  4.1 °C 30 in /  1015.8 hPa WSW 5.8 mph /  9.3 km/h 5.8 mph /  9.3 km/h 48 % 0 in /  0.0 mm
18:58 58.8 °F /  14.9 °C 39.2 °F /  4.0 °C 30 in /  1015.8 hPa SW 10.4 mph /  16.7 km/h 10.4 mph /  16.7 km/h 48 % 0 in /  0.0 mm
19:00 48.4 °F /  9.1 °C 35.1 °F /  1.7 °C 30.1 in /  1017.8 hPa WSW 3 mph /  4.8 km/h 6 mph /  9.7 km/h 60 % 0 in /  0.0 mm
19:03 58.5 °F /  14.7 °C 38.8 °F /  3.8 °C 30 in /  1015.8 hPa West 7.6 mph /  12.2 km/h 7.6 mph /  12.2 km/h 48 % 0 in /  0.0 mm
19:08 58.3 °F /  14.6 °C 38.7 °F /  3.7 °C 30 in /  1014.8 hPa West 8.1 mph /  13.0 km/h 8.1 mph /  13.0 km/h 48 % 0 in /  0.0 mm
19:10 48.4 °F /  9.1 °C 35.4 °F /  1.9 °C 30 in /  1016.8 hPa WSW 3 mph /  4.8 km/h 6 mph /  9.7 km/h 61 % 0 in /  0.0 mm
19:13 57.9 °F /  14.4 °C 38.3 °F /  3.5 °C 30 in /  1014.8 hPa WSW 9.2 mph /  14.8 km/h 9.2 mph /  14.8 km/h 48 % 0 in /  0.0 mm
19:18 57.7 °F /  14.3 °C 38.1 °F /  3.4 °C 30 in /  1014.8 hPa WSW 6.9 mph /  11.1 km/h 6.9 mph /  11.1 km/h 48 % 0 in /  0.0 mm
19:20 48.4 °F /  9.1 °C 35.4 °F /  1.9 °C 30 in /  1016.8 hPa WSW 2 mph /  3.2 km/h 3 mph /  4.8 km/h 61 % 0 in /  0.0 mm
19:23 57.6 °F /  14.2 °C 37.9 °F /  3.3 °C 30 in /  1015.8 hPa West 8.1 mph /  13.0 km/h 8.1 mph /  13.0 km/h 48 % 0 in /  0.0 mm
19:28 57.4 °F /  14.1 °C 37.8 °F /  3.2 °C 30 in /  1015.8 hPa WNW 13 mph /  20.9 km/h 13 mph /  20.9 km/h 48 % 0 in /  0.0 mm
19:30 48 °F /  8.9 °C 35.2 °F /  1.8 °C 30 in /  1016.8 hPa WSW 2 mph /  3.2 km/h 3 mph /  4.8 km/h 61 % 0 in /  0.0 mm
19:33 57.2 °F /  14.0 °C 37.8 °F /  3.2 °C 30 in /  1015.8 hPa WSW 10.5 mph /  16.9 km/h 10.5 mph /  16.9 km/h 48 % 0 in /  0.0 mm
19:38 57 °F /  13.9 °C 37.6 °F /  3.1 °C 30 in /  1015.8 hPa WSW 5.8 mph /  9.3 km/h 5.8 mph /  9.3 km/h 48 % 0 in /  0.0 mm
19:40 47.7 °F /  8.7 °C 34.9 °F /  1.6 °C 30 in /  1016.8 hPa WSW 2 mph /  3.2 km/h 3 mph /  4.8 km/h 61 % 0 in /  0.0 mm
19:43 56.8 °F /  13.8 °C 37.2 °F /  2.9 °C 30 in /  1015.8 hPa WSW 5.8 mph /  9.3 km/h 5.8 mph /  9.3 km/h 48 % 0 in /  0.0 mm
19:48 56.5 °F /  13.6 °C 37 °F /  2.8 °C 30 in /  1015.8 hPa West 3.5 mph /  5.6 km/h 3.5 mph /  5.6 km/h 48 % 0 in /  0.0 mm
19:50 47.5 °F /  8.6 °C 35.1 °F /  1.7 °C 30 in /  1016.8 hPa WSW 1 mph /  1.6 km/h 2 mph /  3.2 km/h 62 % 0 in /  0.0 mm
19:53 56.1 °F /  13.4 °C 36.7 °F /  2.6 °C 30 in /  1014.8 hPa West 5.9 mph /  9.5 km/h 5.9 mph /  9.5 km/h 48 % 0 in /  0.0 mm
19:58 55.9 °F /  13.3 °C 37 °F /  2.8 °C 30 in /  1014.8 hPa SSW 5.8 mph /  9.3 km/h 5.8 mph /  9.3 km/h 49 % 0 in /  0.0 mm
20:00 47.3 °F /  8.5 °C 34.9 °F /  1.6 °C 30.1 in /  1017.8 hPa WSW 2 mph /  3.2 km/h 4 mph /  6.4 km/h 62 % 0 in /  0.0 mm
20:03 55.8 °F /  13.2 °C 36.9 °F /  2.7 °C 30 in /  1014.8 hPa West 8.1 mph /  13.0 km/h 8.1 mph /  13.0 km/h 49 % 0 in /  0.0 mm
20:08 55.6 °F /  13.1 °C 36.7 °F /  2.6 °C 30 in /  1015.8 hPa West 5.8 mph /  9.3 km/h 5.8 mph /  9.3 km/h 49 % 0 in /  0.0 mm
20:10 46.9 °F /  8.3 °C 35.1 °F /  1.7 °C 30.1 in /  1017.8 hPa WSW 1 mph /  1.6 km/h 2 mph /  3.2 km/h 63 % 0 in /  0.0 mm
20:13 55.4 °F /  13.0 °C 36.5 °F /  2.5 °C 30 in /  1015.8 hPa West 5.8 mph /  9.3 km/h 5.8 mph /  9.3 km/h 49 % 0 in /  0.0 mm
20:18 55.2 °F /  12.9 °C 36.3 °F /  2.4 °C 30 in /  1015.8 hPa WSW 10.4 mph /  16.7 km/h 10.4 mph /  16.7 km/h 49 % 0 in /  0.0 mm
20:20 46.8 °F /  8.2 °C 34.9 °F /  1.6 °C 30.1 in /  1017.8 hPa Calm   1 mph /  1.6 km/h 63 % 0 in /  0.0 mm
20:23 55.2 °F /  12.9 °C 36.3 °F /  2.4 °C 30 in /  1015.8 hPa West 6.9 mph /  11.1 km/h 6.9 mph /  11.1 km/h 49 % 0 in /  0.0 mm
20:28 54.9 °F /  12.7 °C 36.7 °F /  2.6 °C 30 in /  1015.8 hPa WSW 5.8 mph /  9.3 km/h 5.8 mph /  9.3 km/h 50 % 0 in /  0.0 mm
20:30 46.4 °F /  8.0 °C 34.9 °F /  1.6 °C 30.1 in /  1017.8 hPa SSW 1 mph /  1.6 km/h 2 mph /  3.2 km/h 64 % 0 in /  0.0 mm
20:33 54.7 °F /  12.6 °C 36.3 °F /  2.4 °C 30 in /  1015.8 hPa WNW 4.6 mph /  7.4 km/h 4.6 mph /  7.4 km/h 50 % 0 in /  0.0 mm
20:38 54.5 °F /  12.5 °C 36.1 °F /  2.3 °C 30 in /  1015.8 hPa NW 4.6 mph /  7.4 km/h 4.6 mph /  7.4 km/h 50 % 0 in /  0.0 mm
20:40 46.4 °F /  8.0 °C 34.9 °F /  1.6 °C 30.1 in /  1017.8 hPa Calm   1 mph /  1.6 km/h 64 % 0 in /  0.0 mm
20:43 54.3 °F /  12.4 °C 36.1 °F /  2.3 °C 30 in /  1015.8 hPa WNW 8.1 mph /  13.0 km/h 8.1 mph /  13.0 km/h 50 % 0 in /  0.0 mm
20:48 54.1 °F /  12.3 °C 36 °F /  2.2 °C 30 in /  1015.8 hPa NNE 5.8 mph /  9.3 km/h 5.8 mph /  9.3 km/h 50 % 0 in /  0.0 mm
20:53 54.1 °F /  12.3 °C 36 °F /  2.2 °C 30 in /  1016.8 hPa WNW 5.8 mph /  9.3 km/h 5.8 mph /  9.3 km/h 50 % 0 in /  0.0 mm
20:58 54 °F /  12.2 °C 36.1 °F /  2.3 °C 30 in /  1016.8 hPa SE 3.5 mph /  5.6 km/h 3.5 mph /  5.6 km/h 51 % 0 in /  0.0 mm
21:00 45.9 °F /  7.7 °C 34.3 °F /  1.3 °C 30.1 in /  1017.8 hPa Calm   3 mph /  4.8 km/h 64 % 0 in /  0.0 mm
21:03 53.8 °F /  12.1 °C 36.1 °F /  2.3 °C 30 in /  1016.8 hPa WSW 8.1 mph /  13.0 km/h 8.1 mph /  13.0 km/h 51 % 0 in /  0.0 mm
21:08 53.6 °F /  12.0 °C 36 °F /  2.2 °C 30 in /  1016.8 hPa WSW 3.5 mph /  5.6 km/h 3.5 mph /  5.6 km/h 51 % 0 in /  0.0 mm
21:10 45.7 °F /  7.6 °C 34.2 °F /  1.2 °C 30.1 in /  1017.8 hPa Calm   2 mph /  3.2 km/h 64 % 0 in /  0.0 mm
21:13 53.4 °F /  11.9 °C 35.8 °F /  2.1 °C 30 in /  1016.8 hPa SSW 4.6 mph /  7.4 km/h 4.6 mph /  7.4 km/h 51 % 0 in /  0.0 mm
21:18 53.2 °F /  11.8 °C 35.6 °F /  2.0 °C 30 in /  1016.8 hPa West 3.5 mph /  5.6 km/h 3.5 mph /  5.6 km/h 51 % 0 in /  0.0 mm
21:20 45.9 °F /  7.7 °C 34.3 °F /  1.3 °C 30.1 in /  1017.8 hPa WSW 1 mph /  1.6 km/h 3 mph /  4.8 km/h 64 % 0 in /  0.0 mm
21:23 53.2 °F /  11.8 °C 35.6 °F /  2.0 °C 30 in /  1015.8 hPa West 6.9 mph /  11.1 km/h 6.9 mph /  11.1 km/h 51 % 0 in /  0.0 mm
21:28 53.1 °F /  11.7 °C 35.4 °F /  1.9 °C 30 in /  1015.8 hPa NE 5.8 mph /  9.3 km/h 5.8 mph /  9.3 km/h 51 % 0 in /  0.0 mm
21:30 46.2 °F /  7.9 °C 34.3 °F /  1.3 °C 30.1 in /  1017.8 hPa West 3 mph /  4.8 km/h 3 mph /  4.8 km/h 63 % 0 in /  0.0 mm
21:33 52.9 °F /  11.6 °C 35.8 °F /  2.1 °C 30 in /  1015.8 hPa West 5.8 mph /  9.3 km/h 5.8 mph /  9.3 km/h 52 % 0 in /  0.0 mm
21:38 52.9 °F /  11.6 °C 35.8 °F /  2.1 °C 30 in /  1015.8 hPa West 5.8 mph /  9.3 km/h 5.8 mph /  9.3 km/h 52 % 0 in /  0.0 mm
21:40 46.8 °F /  8.2 °C 34.3 °F /  1.3 °C 30 in /  1016.8 hPa West 3 mph /  4.8 km/h 5 mph /  8.0 km/h 62 % 0 in /  0.0 mm
21:43 52.7 °F /  11.5 °C 35.6 °F /  2.0 °C 30 in /  1015.8 hPa WSW 4 mph /  6.4 km/h 4 mph /  6.4 km/h 52 % 0 in /  0.0 mm
21:48 52.5 °F /  11.4 °C 35.4 °F /  1.9 °C 30 in /  1015.8 hPa WSW 4.6 mph /  7.4 km/h 4.6 mph /  7.4 km/h 52 % 0 in /  0.0 mm
21:50 46.2 °F /  7.9 °C 34 °F /  1.1 °C 30 in /  1016.8 hPa WSW 6 mph /  9.7 km/h 6 mph /  9.7 km/h 62 % 0 in /  0.0 mm
21:53 52.5 °F /  11.4 °C 35.4 °F /  1.9 °C 30 in /  1016.8 hPa West 5.8 mph /  9.3 km/h 5.8 mph /  9.3 km/h 52 % 0 in /  0.0 mm
21:58 52.3 °F /  11.3 °C 35.2 °F /  1.8 °C 30 in /  1016.8 hPa SW 4.6 mph /  7.4 km/h 4.6 mph /  7.4 km/h 52 % 0 in /  0.0 mm
22:00 46.8 °F /  8.2 °C 34.3 °F /  1.3 °C 30 in /  1016.8 hPa WSW 5 mph /  8.0 km/h 5 mph /  8.0 km/h 62 % 0 in /  0.0 mm
22:03 52.3 °F /  11.3 °C 35.2 °F /  1.8 °C 30 in /  1016.8 hPa SW 5.8 mph /  9.3 km/h 5.8 mph /  9.3 km/h 52 % 0 in /  0.0 mm
22:08 52.2 °F /  11.2 °C 35.4 °F /  1.9 °C 30 in /  1016.8 hPa WNW 5.8 mph /  9.3 km/h 5.8 mph /  9.3 km/h 53 % 0 in /  0.0 mm
22:10 46.8 °F /  8.2 °C 34 °F /  1.1 °C 30 in /  1016.8 hPa WSW 3 mph /  4.8 km/h 5 mph /  8.0 km/h 61 % 0 in /  0.0 mm
22:13 52.2 °F /  11.2 °C 35.4 °F /  1.9 °C 30 in /  1016.8 hPa West 9.2 mph /  14.8 km/h 9.2 mph /  14.8 km/h 53 % 0 in /  0.0 mm
22:18 52 °F /  11.1 °C 35.4 °F /  1.9 °C 30 in /  1016.8 hPa NNW 5.8 mph /  9.3 km/h 5.8 mph /  9.3 km/h 53 % 0 in /  0.0 mm
22:20 46.2 °F /  7.9 °C 33.4 °F /  0.8 °C 30 in /  1016.8 hPa WSW 2 mph /  3.2 km/h 3 mph /  4.8 km/h 61 % 0 in /  0.0 mm
22:23 51.8 °F /  11.0 °C 35.2 °F /  1.8 °C 30.1 in /  1017.8 hPa South 8.1 mph /  13.0 km/h 8.1 mph /  13.0 km/h 53 % 0 in /  0.0 mm
22:28 51.8 °F /  11.0 °C 35.2 °F /  1.8 °C 30.1 in /  1017.8 hPa WSW 3.5 mph /  5.6 km/h 3.5 mph /  5.6 km/h 53 % 0 in /  0.0 mm
22:30 46.2 °F /  7.9 °C 34 °F /  1.1 °C 30 in /  1015.8 hPa WSW 3 mph /  4.8 km/h 4 mph /  6.4 km/h 62 % 0 in /  0.0 mm
22:33 51.6 °F /  10.9 °C 35.1 °F /  1.7 °C 30.1 in /  1017.8 hPa NNW 2.4 mph /  3.9 km/h   53 % 0 in /  0.0 mm
22:38 51.4 °F /  10.8 °C 35.2 °F /  1.8 °C 30.1 in /  1017.8 hPa WSW 4.6 mph /  7.4 km/h 4.6 mph /  7.4 km/h 54 % 0 in /  0.0 mm
22:40 46.2 °F /  7.9 °C 34 °F /  1.1 °C 30 in /  1016.8 hPa WSW 3 mph /  4.8 km/h 4 mph /  6.4 km/h 62 % 0 in /  0.0 mm
22:43 51.4 °F /  10.8 °C 35.2 °F /  1.8 °C 30.1 in /  1017.8 hPa SW 2.3 mph /  3.7 km/h 2.3 mph /  3.7 km/h 54 % 0 in /  0.0 mm
22:48 51.4 °F /  10.8 °C 35.2 °F /  1.8 °C 30.1 in /  1017.8 hPa South 5.8 mph /  9.3 km/h 5.8 mph /  9.3 km/h 54 % 0 in /  0.0 mm
22:50 45.9 °F /  7.7 °C 33.6 °F /  0.9 °C 30 in /  1016.8 hPa WSW 3 mph /  4.8 km/h 4 mph /  6.4 km/h 62 % 0 in /  0.0 mm
22:53 51.3 °F /  10.7 °C 35.2 °F /  1.8 °C 30.1 in /  1017.8 hPa WSW 4.9 mph /  7.9 km/h 4.9 mph /  7.9 km/h 54 % 0 in /  0.0 mm
22:58 51.1 °F /  10.6 °C 35.1 °F /  1.7 °C 30.1 in /  1017.8 hPa WSW 4.6 mph /  7.4 km/h 4.6 mph /  7.4 km/h 54 % 0 in /  0.0 mm
23:00 45.7 °F /  7.6 °C 33.4 °F /  0.8 °C 30 in /  1016.8 hPa WSW 2 mph /  3.2 km/h 4 mph /  6.4 km/h 62 % 0 in /  0.0 mm
23:03 51.1 °F /  10.6 °C 35.1 °F /  1.7 °C 30.1 in /  1017.8 hPa NNE 4.6 mph /  7.4 km/h 4.6 mph /  7.4 km/h 54 % 0 in /  0.0 mm
23:08 50.9 °F /  10.5 °C 35.2 °F /  1.8 °C 30.1 in /  1017.8 hPa SW 3.5 mph /  5.6 km/h 3.5 mph /  5.6 km/h 55 % 0 in /  0.0 mm
23:10 45.5 °F /  7.5 °C 33.3 °F /  0.7 °C 30 in /  1016.8 hPa WSW 3 mph /  4.8 km/h 4 mph /  6.4 km/h 62 % 0 in /  0.0 mm
23:13 50.9 °F /  10.5 °C 35.2 °F /  1.8 °C 30.1 in /  1017.8 hPa SW 3.5 mph /  5.6 km/h 3.5 mph /  5.6 km/h 55 % 0 in /  0.0 mm
23:18 50.7 °F /  10.4 °C 35.1 °F /  1.7 °C 30.1 in /  1017.8 hPa West 8.1 mph /  13.0 km/h 8.1 mph /  13.0 km/h 55 % 0 in /  0.0 mm
23:20 45.5 °F /  7.5 °C 33.3 °F /  0.7 °C 30 in /  1016.8 hPa WSW 5 mph /  8.0 km/h 5 mph /  8.0 km/h 62 % 0 in /  0.0 mm
23:23 50.7 °F /  10.4 °C 35.1 °F /  1.7 °C 30.1 in /  1017.8 hPa WSW 4.9 mph /  7.9 km/h 4.9 mph /  7.9 km/h 55 % 0 in /  0.0 mm
23:28 50.5 °F /  10.3 °C 35.1 °F /  1.7 °C 30.1 in /  1017.8 hPa WSW 6.9 mph /  11.1 km/h 6.9 mph /  11.1 km/h 55 % 0 in /  0.0 mm
23:30 45.5 °F /  7.5 °C 33.3 °F /  0.7 °C 30 in /  1016.8 hPa WSW 6 mph /  9.7 km/h 6 mph /  9.7 km/h 62 % 0 in /  0.0 mm
23:33 50.4 °F /  10.2 °C 35.2 °F /  1.8 °C 30.1 in /  1017.8 hPa West 5.8 mph /  9.3 km/h 5.8 mph /  9.3 km/h 56 % 0 in /  0.0 mm
23:38 50.2 °F /  10.1 °C 35.1 °F /  1.7 °C 30.1 in /  1017.8 hPa WSW 5.8 mph /  9.3 km/h 5.8 mph /  9.3 km/h 56 % 0 in /  0.0 mm
23:40 45.1 °F /  7.3 °C 32.9 °F /  0.5 °C 30 in /  1016.8 hPa WSW 3 mph /  4.8 km/h 4 mph /  6.4 km/h 62 % 0 in /  0.0 mm
23:43 50 °F /  10.0 °C 35.4 °F /  1.9 °C 30.1 in /  1017.8 hPa SW 5.8 mph /  9.3 km/h 5.8 mph /  9.3 km/h 57 % 0 in /  0.0 mm
23:48 49.8 °F /  9.9 °C 35.2 °F /  1.8 °C 30.1 in /  1017.8 hPa WNW 4.6 mph /  7.4 km/h 4.6 mph /  7.4 km/h 57 % 0 in /  0.0 mm
23:50 45.3 °F /  7.4 °C 33.1 °F /  0.6 °C 30 in /  1016.8 hPa West 5 mph /  8.0 km/h 6 mph /  9.7 km/h 62 % 0 in /  0.0 mm
23:53 49.8 °F /  9.9 °C 35.2 °F /  1.8 °C 30 in /  1016.8 hPa WSW 5.8 mph /  9.3 km/h 5.8 mph /  9.3 km/h 57 % 0 in /  0.0 mm
23:58 49.8 °F /  9.9 °C 35.6 °F /  2.0 °C 30 in /  1016.8 hPa WSW 4.6 mph /  7.4 km/h 4.6 mph /  7.4 km/h 58 % 0 in /  0.0 mm
Meteo Sesrovires
Elogis d' Weather Underground - 4.25 mb

Guio original per  Jim McMurry - jmcmurry@mwt.net Adaptat per a la plantilla per  Wim van der Kuil - Leuven-Template.eu

Trobareu la nostra informacio del temps tambe a:

Weather Underground

AWEKAS